Sugar Land, TX (77498)

8:30 AM CDT on April 21, 2015 (GMT -0500)
Industrial Park / FBCA | | Change Station
CLOSE
Current Station
Personal Weather Station
Location: Sugar Land, TX
Elevation: 95 ft
Nearby Weather Stations
Active Advisory: Flood Warning

Elev 95 ft 29.63 °N, 95.62 °W | Updated 4 minutes ago

Clear
Clear
64.7 °F
Feels Like 64.7 °F
N
0.0
Wind Variable Wind from NW
Gusts 4.0 mph

Today
High -- | Low -- °F
--% Chance of Precip.
Yesterday
High -- | Low -- °F
Precip. -- in
6:49 AM 7:52 PM
Waxing Crescent, 10% visible
Pressure 30.01 in
Visibility 10.0 miles
Clouds Clear
Dew Point 54 °F
Humidity 68%
Rainfall 0.00 in
Snow Depth Not available.
UV 1 out of 12
Pollen 8.00 out of 12
Air Quality Not available.
Flu Activity Local Activity
METAR KSGR 211253Z 07005KT 10SM CLR 18/11 A3000 RMK AO2 SLP160 T01780106

More Conditions Fewer Conditions

Pressure 30.01 in
Visibility 10.0 miles
Clouds Clear
Dew Point 54 °F
Humidity 68%
Rainfall 0.00 in
Snow Depth Not available.
UV 1 out of 12
Pollen 8.00 out of 12
Air Quality Not available.
Flu Activity Local Activity
METAR KSGR 211253Z 07005KT 10SM CLR 18/11 A3000 RMK AO2 SLP160 T01780106

More Conditions Fewer Conditions

10-Day Weather Forecast

Almanac

Astronomy

Apr. 21, 2015 Rise Set
Actual Time
Civil Twilight
Nautical Twilight
Astronomical Twilight
Moon
Length of Visible Light
Length of Day
Tomorrow will be .
, % of the Moon is Illuminated

Today's Extremes

State Highs State Lows

Community

WunderPhotos

Upload Photos

1,815,374 photos uploaded!

WunderBlogs® & News

Nearby

Air Quality

  Air Quality AQ Index Pollutant
Not available.

Snow Depth

Station Depth Elevation

Earthquake Activity

City Distance Mag. Time & Date
Minimum magnitude displayed is 2.5.

Coastal Water Temperatures

Place Temperature

Stations

Nearby Weather Stations

Station Location Temp. Windchill Dew Point Humidity Wind Precip. Elev Updated Type
                   
Flood Warning
Statement as of 8:59 PM CDT on April 20, 2015

... Flood Warning extended until late Thursday night... the Flood Warning
continues for
the San Bernard River near Boling
* until late Thursday night... or until the warning is cancelled.
* At 0831 PM Monday the stage was 28.1 feet
* moderate flooding is occurring and moderate flooding is forecast.
* Flood stage is 18.0 feet
* forecast... the river will continue to slowly fall to below flood stage by Thursday
early afternoon. Some minor tributaries have water working their way through the
gage.


Lat... Lon 2940 9592 2930 9584 2913 9566 2913 9577 2930 9595 2940 9605





                     flood observed forecast 6 PM
location stage stage day time Tue Wed Thu Fri

San Bernard River
Boling 18 28.1 Mon 09 PM 23.6 20.3 16.9 13.0